sensor_id;sensor_type;location;lat;lon;timestamp;P1;durP1;ratioP1;P2;durP2;ratioP2
81523;SDS011;70954;49.500;10.416;2024-02-26T00:01:38;1.45;;;1.23;;
81523;SDS011;70954;49.500;10.416;2024-02-26T00:04:04;1.58;;;1.00;;
81523;SDS011;70954;49.500;10.416;2024-02-26T00:06:30;1.58;;;1.10;;
81523;SDS011;70954;49.500;10.416;2024-02-26T00:08:55;1.30;;;1.00;;
81523;SDS011;70954;49.500;10.416;2024-02-26T00:11:21;1.27;;;1.15;;
81523;SDS011;70954;49.500;10.416;2024-02-26T00:13:47;1.65;;;1.05;;
81523;SDS011;70954;49.500;10.416;2024-02-26T00:16:12;1.27;;;1.02;;
81523;SDS011;70954;49.500;10.416;2024-02-26T00:18:37;1.10;;;0.80;;
81523;SDS011;70954;49.500;10.416;2024-02-26T00:21:03;1.33;;;0.88;;
81523;SDS011;70954;49.500;10.416;2024-02-26T00:23:29;1.60;;;1.25;;
81523;SDS011;70954;49.500;10.416;2024-02-26T00:25:54;1.10;;;0.90;;
81523;SDS011;70954;49.500;10.416;2024-02-26T00:28:20;1.30;;;1.00;;
81523;SDS011;70954;49.500;10.416;2024-02-26T00:30:46;1.73;;;1.27;;
81523;SDS011;70954;49.500;10.416;2024-02-26T00:33:12;1.00;;;0.90;;
81523;SDS011;70954;49.500;10.416;2024-02-26T00:35:37;1.75;;;1.00;;
81523;SDS011;70954;49.500;10.416;2024-02-26T00:38:03;1.40;;;1.00;;
81523;SDS011;70954;49.500;10.416;2024-02-26T00:40:29;1.63;;;1.20;;
81523;SDS011;70954;49.500;10.416;2024-02-26T00:42:54;1.45;;;0.98;;
81523;SDS011;70954;49.500;10.416;2024-02-26T00:45:20;1.70;;;0.95;;
81523;SDS011;70954;49.500;10.416;2024-02-26T00:47:45;1.17;;;0.98;;
81523;SDS011;70954;49.500;10.416;2024-02-26T00:50:11;1.52;;;1.10;;
81523;SDS011;70954;49.500;10.416;2024-02-26T00:52:36;1.20;;;0.82;;
81523;SDS011;70954;49.500;10.416;2024-02-26T00:55:02;1.95;;;1.30;;
81523;SDS011;70954;49.500;10.416;2024-02-26T00:57:28;1.83;;;1.20;;
81523;SDS011;70954;49.500;10.416;2024-02-26T00:59:53;1.13;;;0.98;;
81523;SDS011;70954;49.500;10.416;2024-02-26T01:02:18;1.38;;;1.00;;
81523;SDS011;70954;49.500;10.416;2024-02-26T01:04:44;2.25;;;1.20;;
81523;SDS011;70954;49.500;10.416;2024-02-26T01:07:09;1.90;;;1.10;;
81523;SDS011;70954;49.500;10.416;2024-02-26T01:09:35;2.05;;;1.00;;
81523;SDS011;70954;49.500;10.416;2024-02-26T01:12:00;1.52;;;1.05;;
81523;SDS011;70954;49.500;10.416;2024-02-26T01:14:26;1.35;;;0.90;;
81523;SDS011;70954;49.500;10.416;2024-02-26T01:16:51;1.83;;;1.13;;
81523;SDS011;70954;49.500;10.416;2024-02-26T01:19:16;1.40;;;0.90;;
81523;SDS011;70954;49.500;10.416;2024-02-26T01:21:42;1.70;;;1.00;;
81523;SDS011;70954;49.500;10.416;2024-02-26T01:24:07;1.40;;;1.00;;
81523;SDS011;70954;49.500;10.416;2024-02-26T01:26:33;1.63;;;1.20;;
81523;SDS011;70954;49.500;10.416;2024-02-26T01:28:58;1.30;;;1.00;;
81523;SDS011;70954;49.500;10.416;2024-02-26T01:31:24;1.20;;;1.00;;
81523;SDS011;70954;49.500;10.416;2024-02-26T01:33:49;1.63;;;1.00;;
81523;SDS011;70954;49.500;10.416;2024-02-26T01:36:15;1.42;;;1.23;;
81523;SDS011;70954;49.500;10.416;2024-02-26T01:38:40;2.92;;;1.55;;
81523;SDS011;70954;49.500;10.416;2024-02-26T01:41:05;1.90;;;1.15;;
81523;SDS011;70954;49.500;10.416;2024-02-26T01:43:31;1.55;;;1.15;;
81523;SDS011;70954;49.500;10.416;2024-02-26T01:45:56;1.60;;;1.10;;
81523;SDS011;70954;49.500;10.416;2024-02-26T01:48:22;1.48;;;0.95;;
81523;SDS011;70954;49.500;10.416;2024-02-26T01:50:48;1.33;;;1.00;;
81523;SDS011;70954;49.500;10.416;2024-02-26T01:53:15;1.17;;;0.70;;
81523;SDS011;70954;49.500;10.416;2024-02-26T01:55:41;1.48;;;0.93;;
81523;SDS011;70954;49.500;10.416;2024-02-26T01:58:07;1.48;;;1.05;;
81523;SDS011;70954;49.500;10.416;2024-02-26T02:00:33;1.05;;;0.90;;
81523;SDS011;70954;49.500;10.416;2024-02-26T02:02:59;1.67;;;1.00;;
81523;SDS011;70954;49.500;10.416;2024-02-26T02:05:26;1.52;;;1.20;;
81523;SDS011;70954;49.500;10.416;2024-02-26T02:07:52;1.50;;;1.08;;
81523;SDS011;70954;49.500;10.416;2024-02-26T02:10:19;1.10;;;0.85;;
81523;SDS011;70954;49.500;10.416;2024-02-26T02:12:44;0.70;;;0.60;;
81523;SDS011;70954;49.500;10.416;2024-02-26T02:15:10;1.23;;;1.02;;
81523;SDS011;70954;49.500;10.416;2024-02-26T02:17:36;2.05;;;1.30;;
81523;SDS011;70954;49.500;10.416;2024-02-26T02:20:01;1.65;;;1.08;;
81523;SDS011;70954;49.500;10.416;2024-02-26T02:22:27;1.50;;;0.85;;
81523;SDS011;70954;49.500;10.416;2024-02-26T02:24:52;1.63;;;1.10;;
81523;SDS011;70954;49.500;10.416;2024-02-26T02:27:18;2.00;;;1.13;;
81523;SDS011;70954;49.500;10.416;2024-02-26T02:29:45;0.90;;;0.80;;
81523;SDS011;70954;49.500;10.416;2024-02-26T02:32:11;1.40;;;0.90;;
81523;SDS011;70954;49.500;10.416;2024-02-26T02:34:37;1.42;;;0.95;;
81523;SDS011;70954;49.500;10.416;2024-02-26T02:37:02;1.77;;;0.93;;
81523;SDS011;70954;49.500;10.416;2024-02-26T02:39:28;1.17;;;0.98;;
81523;SDS011;70954;49.500;10.416;2024-02-26T02:41:53;1.42;;;1.02;;
81523;SDS011;70954;49.500;10.416;2024-02-26T02:44:19;1.50;;;1.23;;
81523;SDS011;70954;49.500;10.416;2024-02-26T02:46:44;1.20;;;0.90;;
81523;SDS011;70954;49.500;10.416;2024-02-26T02:49:10;1.17;;;0.90;;
81523;SDS011;70954;49.500;10.416;2024-02-26T02:51:35;1.58;;;1.00;;
81523;SDS011;70954;49.500;10.416;2024-02-26T02:54:01;1.73;;;1.05;;
81523;SDS011;70954;49.500;10.416;2024-02-26T02:56:27;1.08;;;0.88;;
81523;SDS011;70954;49.500;10.416;2024-02-26T02:58:52;1.40;;;0.90;;
81523;SDS011;70954;49.500;10.416;2024-02-26T03:01:18;1.75;;;1.00;;
81523;SDS011;70954;49.500;10.416;2024-02-26T03:03:43;1.05;;;0.80;;
81523;SDS011;70954;49.500;10.416;2024-02-26T03:06:08;1.35;;;1.00;;
81523;SDS011;70954;49.500;10.416;2024-02-26T03:08:34;2.00;;;1.42;;
81523;SDS011;70954;49.500;10.416;2024-02-26T03:10:59;1.30;;;0.90;;
81523;SDS011;70954;49.500;10.416;2024-02-26T03:13:25;1.77;;;1.02;;
81523;SDS011;70954;49.500;10.416;2024-02-26T03:15:50;2.10;;;1.30;;
81523;SDS011;70954;49.500;10.416;2024-02-26T03:18:16;1.67;;;1.23;;
81523;SDS011;70954;49.500;10.416;2024-02-26T03:20:41;1.52;;;1.13;;
81523;SDS011;70954;49.500;10.416;2024-02-26T03:23:06;1.25;;;1.00;;
81523;SDS011;70954;49.500;10.416;2024-02-26T03:25:32;2.15;;;1.20;;
81523;SDS011;70954;49.500;10.416;2024-02-26T03:27:57;1.10;;;0.90;;
81523;SDS011;70954;49.500;10.416;2024-02-26T03:30:23;1.80;;;1.00;;
81523;SDS011;70954;49.500;10.416;2024-02-26T03:32:48;2.20;;;1.42;;
81523;SDS011;70954;49.500;10.416;2024-02-26T03:35:14;2.70;;;1.45;;
81523;SDS011;70954;49.500;10.416;2024-02-26T03:37:39;2.72;;;1.27;;
81523;SDS011;70954;49.500;10.416;2024-02-26T03:40:05;2.35;;;1.30;;
81523;SDS011;70954;49.500;10.416;2024-02-26T03:42:30;1.63;;;1.23;;
81523;SDS011;70954;49.500;10.416;2024-02-26T03:44:56;2.00;;;1.17;;
81523;SDS011;70954;49.500;10.416;2024-02-26T03:47:21;2.53;;;1.30;;
81523;SDS011;70954;49.500;10.416;2024-02-26T03:49:47;2.78;;;1.35;;
81523;SDS011;70954;49.500;10.416;2024-02-26T03:52:12;1.67;;;1.00;;
81523;SDS011;70954;49.500;10.416;2024-02-26T03:54:38;2.08;;;1.17;;
81523;SDS011;70954;49.500;10.416;2024-02-26T03:57:03;2.42;;;1.33;;
81523;SDS011;70954;49.500;10.416;2024-02-26T03:59:29;2.00;;;1.30;;
81523;SDS011;70954;49.500;10.416;2024-02-26T04:01:54;2.75;;;1.60;;
81523;SDS011;70954;49.500;10.416;2024-02-26T04:04:20;1.95;;;1.40;;
81523;SDS011;70954;49.500;10.416;2024-02-26T04:06:46;1.40;;;1.10;;
81523;SDS011;70954;49.500;10.416;2024-02-26T04:09:13;1.50;;;1.13;;
81523;SDS011;70954;49.500;10.416;2024-02-26T04:11:39;9.48;;;2.53;;
81523;SDS011;70954;49.500;10.416;2024-02-26T04:14:04;3.00;;;1.63;;
81523;SDS011;70954;49.500;10.416;2024-02-26T04:16:30;2.70;;;1.50;;
81523;SDS011;70954;49.500;10.416;2024-02-26T04:18:55;3.03;;;1.90;;
81523;SDS011;70954;49.500;10.416;2024-02-26T04:21:21;3.35;;;1.77;;
81523;SDS011;70954;49.500;10.416;2024-02-26T04:23:46;2.53;;;1.52;;
81523;SDS011;70954;49.500;10.416;2024-02-26T04:26:12;3.10;;;1.60;;
81523;SDS011;70954;49.500;10.416;2024-02-26T04:28:37;2.85;;;1.60;;
81523;SDS011;70954;49.500;10.416;2024-02-26T04:31:02;2.50;;;1.88;;
81523;SDS011;70954;49.500;10.416;2024-02-26T04:33:28;2.92;;;1.77;;
81523;SDS011;70954;49.500;10.416;2024-02-26T04:35:53;2.70;;;1.73;;
81523;SDS011;70954;49.500;10.416;2024-02-26T04:38:19;3.53;;;1.60;;
81523;SDS011;70954;49.500;10.416;2024-02-26T04:40:44;3.67;;;1.92;;
81523;SDS011;70954;49.500;10.416;2024-02-26T04:43:10;2.55;;;1.73;;
81523;SDS011;70954;49.500;10.416;2024-02-26T04:45:35;3.20;;;1.88;;
81523;SDS011;70954;49.500;10.416;2024-02-26T04:48:01;4.32;;;1.77;;
81523;SDS011;70954;49.500;10.416;2024-02-26T04:50:27;3.05;;;1.83;;
81523;SDS011;70954;49.500;10.416;2024-02-26T04:52:52;3.42;;;1.90;;
81523;SDS011;70954;49.500;10.416;2024-02-26T04:55:18;4.63;;;2.72;;
81523;SDS011;70954;49.500;10.416;2024-02-26T04:57:43;4.32;;;1.90;;
81523;SDS011;70954;49.500;10.416;2024-02-26T05:00:09;3.03;;;2.40;;
81523;SDS011;70954;49.500;10.416;2024-02-26T05:02:35;3.78;;;2.05;;
81523;SDS011;70954;49.500;10.416;2024-02-26T05:05:00;3.15;;;2.15;;
81523;SDS011;70954;49.500;10.416;2024-02-26T05:07:26;4.72;;;2.20;;
81523;SDS011;70954;49.500;10.416;2024-02-26T05:09:51;4.90;;;2.72;;
81523;SDS011;70954;49.500;10.416;2024-02-26T05:12:16;4.65;;;2.38;;
81523;SDS011;70954;49.500;10.416;2024-02-26T05:14:42;5.30;;;2.65;;
81523;SDS011;70954;49.500;10.416;2024-02-26T05:17:07;3.00;;;1.85;;
81523;SDS011;70954;49.500;10.416;2024-02-26T05:19:33;3.40;;;1.90;;
81523;SDS011;70954;49.500;10.416;2024-02-26T05:21:58;2.90;;;1.80;;
81523;SDS011;70954;49.500;10.416;2024-02-26T05:24:24;3.38;;;2.10;;
81523;SDS011;70954;49.500;10.416;2024-02-26T05:26:49;3.38;;;1.98;;
81523;SDS011;70954;49.500;10.416;2024-02-26T05:29:15;3.75;;;2.00;;
81523;SDS011;70954;49.500;10.416;2024-02-26T05:31:43;3.42;;;2.00;;
81523;SDS011;70954;49.500;10.416;2024-02-26T05:34:09;4.18;;;2.13;;
81523;SDS011;70954;49.500;10.416;2024-02-26T05:36:34;3.03;;;1.63;;
81523;SDS011;70954;49.500;10.416;2024-02-26T05:39:00;3.08;;;1.75;;
81523;SDS011;70954;49.500;10.416;2024-02-26T05:41:26;2.85;;;1.90;;
81523;SDS011;70954;49.500;10.416;2024-02-26T05:43:54;3.53;;;1.98;;
81523;SDS011;70954;49.500;10.416;2024-02-26T05:46:20;3.00;;;1.95;;
81523;SDS011;70954;49.500;10.416;2024-02-26T05:48:47;3.22;;;2.00;;
81523;SDS011;70954;49.500;10.416;2024-02-26T05:51:13;3.83;;;2.00;;
81523;SDS011;70954;49.500;10.416;2024-02-26T05:53:38;2.88;;;1.92;;
81523;SDS011;70954;49.500;10.416;2024-02-26T05:56:05;3.15;;;1.83;;
81523;SDS011;70954;49.500;10.416;2024-02-26T05:58:31;3.75;;;2.00;;
81523;SDS011;70954;49.500;10.416;2024-02-26T06:00:56;4.75;;;2.75;;
81523;SDS011;70954;49.500;10.416;2024-02-26T06:03:22;3.35;;;1.75;;
81523;SDS011;70954;49.500;10.416;2024-02-26T06:05:47;2.83;;;1.65;;
81523;SDS011;70954;49.500;10.416;2024-02-26T06:08:12;2.70;;;1.65;;
81523;SDS011;70954;49.500;10.416;2024-02-26T06:10:38;2.78;;;1.83;;
81523;SDS011;70954;49.500;10.416;2024-02-26T06:13:04;3.90;;;2.40;;
81523;SDS011;70954;49.500;10.416;2024-02-26T06:15:30;3.85;;;2.85;;
81523;SDS011;70954;49.500;10.416;2024-02-26T06:17:55;3.83;;;2.17;;
81523;SDS011;70954;49.500;10.416;2024-02-26T06:20:21;4.32;;;2.10;;
81523;SDS011;70954;49.500;10.416;2024-02-26T06:22:46;3.53;;;2.10;;
81523;SDS011;70954;49.500;10.416;2024-02-26T06:25:12;3.25;;;2.30;;
81523;SDS011;70954;49.500;10.416;2024-02-26T06:27:37;3.22;;;2.20;;
81523;SDS011;70954;49.500;10.416;2024-02-26T06:30:03;3.45;;;1.95;;
81523;SDS011;70954;49.500;10.416;2024-02-26T06:32:28;4.43;;;2.15;;
81523;SDS011;70954;49.500;10.416;2024-02-26T06:34:54;2.97;;;2.00;;
81523;SDS011;70954;49.500;10.416;2024-02-26T06:37:20;4.18;;;2.60;;
81523;SDS011;70954;49.500;10.416;2024-02-26T06:39:45;3.65;;;2.10;;
81523;SDS011;70954;49.500;10.416;2024-02-26T06:42:11;3.58;;;2.45;;
81523;SDS011;70954;49.500;10.416;2024-02-26T06:44:36;5.72;;;2.53;;
81523;SDS011;70954;49.500;10.416;2024-02-26T06:47:02;3.35;;;2.13;;
81523;SDS011;70954;49.500;10.416;2024-02-26T06:49:27;3.20;;;2.10;;
81523;SDS011;70954;49.500;10.416;2024-02-26T06:51:53;3.80;;;2.10;;
81523;SDS011;70954;49.500;10.416;2024-02-26T06:54:19;3.67;;;2.17;;
81523;SDS011;70954;49.500;10.416;2024-02-26T06:56:44;3.67;;;2.20;;
81523;SDS011;70954;49.500;10.416;2024-02-26T06:59:10;5.07;;;2.40;;
81523;SDS011;70954;49.500;10.416;2024-02-26T07:01:35;4.93;;;2.58;;
81523;SDS011;70954;49.500;10.416;2024-02-26T07:04:01;3.55;;;2.20;;
81523;SDS011;70954;49.500;10.416;2024-02-26T07:06:26;3.65;;;2.33;;
81523;SDS011;70954;49.500;10.416;2024-02-26T07:08:52;3.30;;;1.95;;
81523;SDS011;70954;49.500;10.416;2024-02-26T07:11:18;3.38;;;1.90;;
81523;SDS011;70954;49.500;10.416;2024-02-26T07:13:43;3.38;;;2.15;;
81523;SDS011;70954;49.500;10.416;2024-02-26T07:16:09;3.63;;;1.90;;
81523;SDS011;70954;49.500;10.416;2024-02-26T07:18:34;4.78;;;2.35;;
81523;SDS011;70954;49.500;10.416;2024-02-26T07:21:01;3.97;;;2.30;;
81523;SDS011;70954;49.500;10.416;2024-02-26T07:23:27;4.15;;;2.47;;
81523;SDS011;70954;49.500;10.416;2024-02-26T07:25:53;3.63;;;2.13;;
81523;SDS011;70954;49.500;10.416;2024-02-26T07:28:18;5.03;;;2.50;;
81523;SDS011;70954;49.500;10.416;2024-02-26T07:30:44;4.60;;;2.75;;
81523;SDS011;70954;49.500;10.416;2024-02-26T07:33:09;4.20;;;2.58;;
81523;SDS011;70954;49.500;10.416;2024-02-26T07:35:35;3.08;;;2.17;;
81523;SDS011;70954;49.500;10.416;2024-02-26T07:38:00;4.82;;;2.55;;
81523;SDS011;70954;49.500;10.416;2024-02-26T07:40:26;3.65;;;2.33;;
81523;SDS011;70954;49.500;10.416;2024-02-26T07:42:51;4.22;;;2.60;;
81523;SDS011;70954;49.500;10.416;2024-02-26T07:45:16;3.55;;;2.25;;
81523;SDS011;70954;49.500;10.416;2024-02-26T07:47:42;5.13;;;2.22;;
81523;SDS011;70954;49.500;10.416;2024-02-26T07:50:08;3.50;;;2.05;;
81523;SDS011;70954;49.500;10.416;2024-02-26T07:52:33;3.42;;;2.38;;
81523;SDS011;70954;49.500;10.416;2024-02-26T07:54:59;5.57;;;2.50;;
81523;SDS011;70954;49.500;10.416;2024-02-26T07:57:24;4.68;;;2.22;;
81523;SDS011;70954;49.500;10.416;2024-02-26T07:59:49;3.47;;;2.38;;
81523;SDS011;70954;49.500;10.416;2024-02-26T08:02:15;2.90;;;2.00;;
81523;SDS011;70954;49.500;10.416;2024-02-26T08:04:41;3.83;;;2.33;;
81523;SDS011;70954;49.500;10.416;2024-02-26T08:07:06;4.22;;;2.30;;
81523;SDS011;70954;49.500;10.416;2024-02-26T08:09:32;3.65;;;2.08;;
81523;SDS011;70954;49.500;10.416;2024-02-26T08:11:57;3.88;;;2.17;;
81523;SDS011;70954;49.500;10.416;2024-02-26T08:14:23;3.63;;;2.45;;
81523;SDS011;70954;49.500;10.416;2024-02-26T08:16:48;4.32;;;2.38;;
81523;SDS011;70954;49.500;10.416;2024-02-26T08:19:14;3.90;;;2.22;;
81523;SDS011;70954;49.500;10.416;2024-02-26T08:21:39;4.30;;;2.65;;
81523;SDS011;70954;49.500;10.416;2024-02-26T08:24:05;3.83;;;2.22;;
81523;SDS011;70954;49.500;10.416;2024-02-26T08:26:30;3.97;;;2.47;;
81523;SDS011;70954;49.500;10.416;2024-02-26T08:28:56;4.32;;;2.63;;
81523;SDS011;70954;49.500;10.416;2024-02-26T08:31:21;6.03;;;3.30;;
81523;SDS011;70954;49.500;10.416;2024-02-26T08:33:47;3.47;;;2.33;;
81523;SDS011;70954;49.500;10.416;2024-02-26T08:36:12;4.13;;;2.47;;
81523;SDS011;70954;49.500;10.416;2024-02-26T08:38:37;3.25;;;2.22;;
81523;SDS011;70954;49.500;10.416;2024-02-26T08:41:03;4.22;;;2.38;;
81523;SDS011;70954;49.500;10.416;2024-02-26T08:43:29;4.68;;;2.47;;
81523;SDS011;70954;49.500;10.416;2024-02-26T08:45:55;6.18;;;3.17;;
81523;SDS011;70954;49.500;10.416;2024-02-26T08:48:21;3.20;;;2.05;;
81523;SDS011;70954;49.500;10.416;2024-02-26T08:50:46;4.05;;;2.38;;
81523;SDS011;70954;49.500;10.416;2024-02-26T08:53:12;4.03;;;2.70;;
81523;SDS011;70954;49.500;10.416;2024-02-26T08:55:37;3.53;;;2.20;;
81523;SDS011;70954;49.500;10.416;2024-02-26T08:58:02;4.25;;;2.80;;
81523;SDS011;70954;49.500;10.416;2024-02-26T09:00:28;3.78;;;2.33;;
81523;SDS011;70954;49.500;10.416;2024-02-26T09:02:53;5.13;;;2.63;;
81523;SDS011;70954;49.500;10.416;2024-02-26T09:05:19;3.95;;;2.58;;
81523;SDS011;70954;49.500;10.416;2024-02-26T09:07:44;4.15;;;2.53;;
81523;SDS011;70954;49.500;10.416;2024-02-26T09:10:10;4.53;;;2.42;;
81523;SDS011;70954;49.500;10.416;2024-02-26T09:12:36;3.63;;;2.25;;
81523;SDS011;70954;49.500;10.416;2024-02-26T09:15:02;4.47;;;2.63;;
81523;SDS011;70954;49.500;10.416;2024-02-26T09:17:39;3.80;;;2.35;;
81523;SDS011;70954;49.500;10.416;2024-02-26T09:20:05;3.22;;;2.05;;
81523;SDS011;70954;49.500;10.416;2024-02-26T09:22:31;3.45;;;2.63;;
81523;SDS011;70954;49.500;10.416;2024-02-26T09:24:56;3.38;;;2.20;;
81523;SDS011;70954;49.500;10.416;2024-02-26T09:27:22;5.57;;;3.33;;
81523;SDS011;70954;49.500;10.416;2024-02-26T09:29:47;4.45;;;2.50;;
81523;SDS011;70954;49.500;10.416;2024-02-26T09:32:13;4.63;;;2.80;;
81523;SDS011;70954;49.500;10.416;2024-02-26T09:34:39;4.72;;;2.67;;
81523;SDS011;70954;49.500;10.416;2024-02-26T09:37:05;4.80;;;2.83;;
81523;SDS011;70954;49.500;10.416;2024-02-26T09:39:31;3.92;;;2.45;;
81523;SDS011;70954;49.500;10.416;2024-02-26T09:41:56;3.63;;;2.17;;
81523;SDS011;70954;49.500;10.416;2024-02-26T09:44:22;4.15;;;2.20;;
81523;SDS011;70954;49.500;10.416;2024-02-26T09:46:48;4.18;;;2.45;;
81523;SDS011;70954;49.500;10.416;2024-02-26T09:49:15;3.75;;;2.22;;
81523;SDS011;70954;49.500;10.416;2024-02-26T09:51:41;3.70;;;2.40;;
81523;SDS011;70954;49.500;10.416;2024-02-26T09:54:07;5.30;;;2.53;;
81523;SDS011;70954;49.500;10.416;2024-02-26T09:56:38;4.05;;;2.28;;
81523;SDS011;70954;49.500;10.416;2024-02-26T09:59:05;3.95;;;2.30;;
81523;SDS011;70954;49.500;10.416;2024-02-26T10:01:33;4.05;;;2.20;;
81523;SDS011;70954;49.500;10.416;2024-02-26T10:04:00;4.30;;;2.67;;
81523;SDS011;70954;49.500;10.416;2024-02-26T10:06:26;4.47;;;3.05;;
81523;SDS011;70954;49.500;10.416;2024-02-26T10:08:51;10.50;;;6.82;;
81523;SDS011;70954;49.500;10.416;2024-02-26T10:11:18;4.90;;;3.80;;
81523;SDS011;70954;49.500;10.416;2024-02-26T10:13:44;4.57;;;2.90;;
81523;SDS011;70954;49.500;10.416;2024-02-26T10:16:09;4.35;;;2.47;;
81523;SDS011;70954;49.500;10.416;2024-02-26T10:18:47;4.82;;;2.63;;
81523;SDS011;70954;49.500;10.416;2024-02-26T10:21:17;3.22;;;2.33;;
81523;SDS011;70954;49.500;10.416;2024-02-26T10:23:43;4.18;;;2.78;;
81523;SDS011;70954;49.500;10.416;2024-02-26T10:26:10;2.97;;;2.03;;
81523;SDS011;70954;49.500;10.416;2024-02-26T10:28:36;4.45;;;2.60;;
81523;SDS011;70954;49.500;10.416;2024-02-26T10:31:01;3.40;;;2.20;;
81523;SDS011;70954;49.500;10.416;2024-02-26T10:33:27;4.75;;;2.58;;
81523;SDS011;70954;49.500;10.416;2024-02-26T10:35:53;2.85;;;1.77;;
81523;SDS011;70954;49.500;10.416;2024-02-26T10:38:19;5.82;;;2.22;;
81523;SDS011;70954;49.500;10.416;2024-02-26T10:40:44;3.92;;;2.38;;
81523;SDS011;70954;49.500;10.416;2024-02-26T10:43:10;4.10;;;2.03;;
81523;SDS011;70954;49.500;10.416;2024-02-26T10:45:35;4.78;;;2.55;;
81523;SDS011;70954;49.500;10.416;2024-02-26T10:48:01;2.97;;;2.15;;
81523;SDS011;70954;49.500;10.416;2024-02-26T10:50:26;3.60;;;2.42;;
81523;SDS011;70954;49.500;10.416;2024-02-26T10:52:52;4.30;;;2.45;;
81523;SDS011;70954;49.500;10.416;2024-02-26T10:55:20;4.13;;;2.25;;
81523;SDS011;70954;49.500;10.416;2024-02-26T10:57:47;3.70;;;2.22;;
81523;SDS011;70954;49.500;10.416;2024-02-26T11:00:16;3.42;;;2.25;;
81523;SDS011;70954;49.500;10.416;2024-02-26T11:02:42;3.95;;;2.42;;
81523;SDS011;70954;49.500;10.416;2024-02-26T11:05:10;3.13;;;1.98;;
81523;SDS011;70954;49.500;10.416;2024-02-26T11:07:37;3.35;;;2.20;;
81523;SDS011;70954;49.500;10.416;2024-02-26T11:10:03;3.08;;;2.10;;
81523;SDS011;70954;49.500;10.416;2024-02-26T11:12:30;3.80;;;2.00;;
81523;SDS011;70954;49.500;10.416;2024-02-26T11:14:57;3.13;;;1.80;;
81523;SDS011;70954;49.500;10.416;2024-02-26T11:17:23;2.95;;;1.98;;
81523;SDS011;70954;49.500;10.416;2024-02-26T11:19:51;3.30;;;2.08;;
81523;SDS011;70954;49.500;10.416;2024-02-26T11:22:17;3.03;;;1.98;;
81523;SDS011;70954;49.500;10.416;2024-02-26T11:24:43;3.08;;;1.77;;
81523;SDS011;70954;49.500;10.416;2024-02-26T11:27:09;3.78;;;1.77;;
81523;SDS011;70954;49.500;10.416;2024-02-26T11:29:41;2.83;;;1.58;;
81523;SDS011;70954;49.500;10.416;2024-02-26T11:32:15;3.17;;;1.85;;
81523;SDS011;70954;49.500;10.416;2024-02-26T11:34:41;2.72;;;1.85;;
81523;SDS011;70954;49.500;10.416;2024-02-26T11:37:11;3.42;;;1.98;;
81523;SDS011;70954;49.500;10.416;2024-02-26T11:39:39;2.95;;;2.00;;
81523;SDS011;70954;49.500;10.416;2024-02-26T11:42:06;2.63;;;1.60;;
81523;SDS011;70954;49.500;10.416;2024-02-26T11:44:35;4.18;;;1.83;;
81523;SDS011;70954;49.500;10.416;2024-02-26T11:47:09;2.90;;;1.90;;
81523;SDS011;70954;49.500;10.416;2024-02-26T11:49:38;2.75;;;1.83;;
81523;SDS011;70954;49.500;10.416;2024-02-26T11:52:08;2.53;;;1.73;;
81523;SDS011;70954;49.500;10.416;2024-02-26T11:54:38;3.03;;;1.70;;
81523;SDS011;70954;49.500;10.416;2024-02-26T11:57:04;3.08;;;1.92;;
81523;SDS011;70954;49.500;10.416;2024-02-26T11:59:44;3.70;;;1.55;;
81523;SDS011;70954;49.500;10.416;2024-02-26T12:02:09;2.83;;;1.70;;
81523;SDS011;70954;49.500;10.416;2024-02-26T12:04:35;2.92;;;1.65;;
81523;SDS011;70954;49.500;10.416;2024-02-26T12:07:02;2.28;;;1.58;;
81523;SDS011;70954;49.500;10.416;2024-02-26T12:12:04;2.90;;;1.65;;
81523;SDS011;70954;49.500;10.416;2024-02-26T12:14:32;3.08;;;1.50;;
81523;SDS011;70954;49.500;10.416;2024-02-26T12:16:59;2.70;;;2.13;;
81523;SDS011;70954;49.500;10.416;2024-02-26T12:19:25;3.28;;;2.00;;
81523;SDS011;70954;49.500;10.416;2024-02-26T12:21:52;2.80;;;1.52;;
81523;SDS011;70954;49.500;10.416;2024-02-26T12:24:18;2.20;;;1.50;;
81523;SDS011;70954;49.500;10.416;2024-02-26T12:26:43;3.30;;;3.00;;
81523;SDS011;70954;49.500;10.416;2024-02-26T12:29:09;3.95;;;1.83;;
81523;SDS011;70954;49.500;10.416;2024-02-26T12:31:35;3.13;;;2.13;;
81523;SDS011;70954;49.500;10.416;2024-02-26T12:34:00;2.55;;;1.73;;
81523;SDS011;70954;49.500;10.416;2024-02-26T12:36:26;3.35;;;1.65;;
81523;SDS011;70954;49.500;10.416;2024-02-26T12:38:52;2.15;;;1.40;;
81523;SDS011;70954;49.500;10.416;2024-02-26T12:41:17;1.60;;;1.20;;
81523;SDS011;70954;49.500;10.416;2024-02-26T12:43:43;2.15;;;1.25;;
81523;SDS011;70954;49.500;10.416;2024-02-26T12:46:09;1.73;;;1.27;;
81523;SDS011;70954;49.500;10.416;2024-02-26T12:48:35;2.38;;;1.25;;
81523;SDS011;70954;49.500;10.416;2024-02-26T12:51:01;2.10;;;1.35;;
81523;SDS011;70954;49.500;10.416;2024-02-26T12:53:26;2.00;;;1.58;;
81523;SDS011;70954;49.500;10.416;2024-02-26T12:55:52;2.67;;;1.40;;
81523;SDS011;70954;49.500;10.416;2024-02-26T12:58:21;2.58;;;1.40;;
81523;SDS011;70954;49.500;10.416;2024-02-26T13:00:47;1.60;;;1.20;;
81523;SDS011;70954;49.500;10.416;2024-02-26T13:03:13;1.90;;;1.38;;
81523;SDS011;70954;49.500;10.416;2024-02-26T13:05:38;2.38;;;1.30;;
81523;SDS011;70954;49.500;10.416;2024-02-26T13:08:05;2.33;;;1.50;;
81523;SDS011;70954;49.500;10.416;2024-02-26T13:10:31;1.73;;;1.15;;
81523;SDS011;70954;49.500;10.416;2024-02-26T13:12:56;1.73;;;1.23;;
81523;SDS011;70954;49.500;10.416;2024-02-26T13:15:22;1.60;;;1.10;;
81523;SDS011;70954;49.500;10.416;2024-02-26T13:17:48;3.10;;;1.50;;
81523;SDS011;70954;49.500;10.416;2024-02-26T13:20:25;1.77;;;1.23;;
81523;SDS011;70954;49.500;10.416;2024-02-26T13:22:51;1.90;;;1.50;;
81523;SDS011;70954;49.500;10.416;2024-02-26T13:25:25;2.15;;;1.33;;
81523;SDS011;70954;49.500;10.416;2024-02-26T13:27:51;2.35;;;1.63;;
81523;SDS011;70954;49.500;10.416;2024-02-26T13:30:16;2.65;;;1.38;;
81523;SDS011;70954;49.500;10.416;2024-02-26T13:32:42;2.25;;;1.38;;
81523;SDS011;70954;49.500;10.416;2024-02-26T13:35:10;2.45;;;1.30;;
81523;SDS011;70954;49.500;10.416;2024-02-26T13:37:37;1.88;;;1.33;;
81523;SDS011;70954;49.500;10.416;2024-02-26T13:40:09;4.22;;;1.60;;
81523;SDS011;70954;49.500;10.416;2024-02-26T13:42:38;3.10;;;1.13;;
81523;SDS011;70954;49.500;10.416;2024-02-26T13:45:04;1.80;;;1.20;;
81523;SDS011;70954;49.500;10.416;2024-02-26T13:47:30;2.85;;;1.58;;
81523;SDS011;70954;49.500;10.416;2024-02-26T13:49:56;1.60;;;1.45;;
81523;SDS011;70954;49.500;10.416;2024-02-26T13:52:22;1.90;;;1.33;;
81523;SDS011;70954;49.500;10.416;2024-02-26T13:54:47;3.22;;;1.50;;
81523;SDS011;70954;49.500;10.416;2024-02-26T13:57:13;3.17;;;1.77;;
81523;SDS011;70954;49.500;10.416;2024-02-26T13:59:38;3.63;;;1.35;;
81523;SDS011;70954;49.500;10.416;2024-02-26T14:02:04;1.98;;;1.27;;
81523;SDS011;70954;49.500;10.416;2024-02-26T14:04:30;1.63;;;1.17;;
81523;SDS011;70954;49.500;10.416;2024-02-26T14:06:55;1.55;;;1.13;;
81523;SDS011;70954;49.500;10.416;2024-02-26T14:09:20;2.13;;;1.40;;
81523;SDS011;70954;49.500;10.416;2024-02-26T14:11:46;1.88;;;1.17;;
81523;SDS011;70954;49.500;10.416;2024-02-26T14:14:11;2.47;;;1.30;;
81523;SDS011;70954;49.500;10.416;2024-02-26T14:16:37;1.90;;;1.17;;
81523;SDS011;70954;49.500;10.416;2024-02-26T14:19:02;2.15;;;1.27;;
81523;SDS011;70954;49.500;10.416;2024-02-26T14:21:28;1.98;;;1.17;;
81523;SDS011;70954;49.500;10.416;2024-02-26T14:23:54;3.50;;;1.45;;
81523;SDS011;70954;49.500;10.416;2024-02-26T14:26:19;1.67;;;1.27;;
81523;SDS011;70954;49.500;10.416;2024-02-26T14:28:45;2.15;;;1.35;;